Pagrindinis puslapis
METAR-TAF:

METAR-TAF

Oro uostai :

Tin City, Aliaska, Jungtinės Amerikos Valstijos

platuma: 65-34N, ilguma: 167-55W, Aukštis: 83 m

Dabartinis oras

Ataskaita buvo paskelbta 13 minutes, ne 10:55 UTC
Vėjas 24 kt iš Šiaurės/Šiaurės Rytų
Temperatūra -25°C
Drėgmė 83%
Slėgis 1019 hPa
Matomumas: 0.4 km
Su prošvaistėmis ne aukštis 200 ft
įšaldymas rūko

METAR: PATC 261055Z AUTO 03024KT 1/4SM FZFG BKN002 M25/M27 A3010 RMK AO2 PK WND 03028/0956 SLP206 T12471266

Laikas: 02:08 (11:08 UTC)


TAF: trūkstamas

Orai ataskaitas ir orų prognozės (METAR, TAF).

turimą stotys yra geltonos ir raudonos taškus žemėlapyje.

Perkelti pele per norėdami pamatyti stoties vardą.

Tada spustelėkite, norėdami matyti oro stebėjimo ir prognozės.

Norėdami pakeisti žemėlapį: spustelėkite ant žalios mygtukų su juodo kryžiaus žemyn,; žalią mygtuką su brūkšneliu, jei norite nutolinti; arba žalių rodyklių gretimoms žemėlapius.


METAR-TAF: